Time,TemperatureF,DewpointF,PressureIn,WindDirection,WindDirectionDegrees,WindSpeedMPH,WindSpeedGustMPH,Humidity,HourlyPrecipIn,Conditions,Clouds,dailyrainin,SoftwareType,DateUTC
2013-06-11 00:14:00,74.6,69.0,30.07,East,88,0.0,-999.0,83,-99.99,,,0.00,weatherlink.com 1.10,2013-06-11 04:14:00,
2013-06-11 00:29:00,74.6,69.0,30.06,East,88,0.0,-999.0,83,-99.99,,,0.00,weatherlink.com 1.10,2013-06-11 04:29:00,
2013-06-11 00:44:00,74.6,69.0,30.06,East,88,0.0,-999.0,83,-99.99,,,0.00,weatherlink.com 1.10,2013-06-11 04:44:00,
2013-06-11 00:59:00,74.6,69.0,30.06,East,88,0.0,-999.0,83,-99.99,,,0.00,weatherlink.com 1.10,2013-06-11 04:59:00,
2013-06-11 01:14:00,74.7,70.0,30.05,East,84,0.0,-999.0,84,-99.99,,,0.00,weatherlink.com 1.10,2013-06-11 05:14:00,
2013-06-11 01:29:00,75.1,70.0,30.05,East,84,0.0,-999.0,84,-99.99,,,0.00,weatherlink.com 1.10,2013-06-11 05:29:00,
2013-06-11 01:44:00,75.1,70.0,30.05,East,84,0.0,-999.0,84,-99.99,,,0.00,weatherlink.com 1.10,2013-06-11 05:44:00,
2013-06-11 01:59:00,75.4,70.0,30.05,East,82,0.0,-999.0,84,-99.99,,,0.00,weatherlink.com 1.10,2013-06-11 05:59:00,
2013-06-11 02:14:00,75.6,71.0,30.05,East,83,0.0,-999.0,84,-99.99,,,0.00,weatherlink.com 1.10,2013-06-11 06:14:00,
2013-06-11 02:29:00,75.6,71.0,30.04,East,83,0.0,-999.0,84,-99.99,,,0.00,weatherlink.com 1.10,2013-06-11 06:29:00,
2013-06-11 02:44:00,75.8,71.0,30.04,East,83,0.0,-999.0,84,-99.99,,,0.00,weatherlink.com 1.10,2013-06-11 06:44:00,
2013-06-11 02:59:00,75.6,71.0,30.03,East,83,0.0,-999.0,84,-99.99,,,0.00,weatherlink.com 1.10,2013-06-11 06:59:00,
2013-06-11 03:14:00,75.6,71.0,30.03,East,82,3.0,-999.0,84,-99.99,,,0.00,weatherlink.com 1.10,2013-06-11 07:14:00,
2013-06-11 03:29:00,75.4,70.0,30.03,East,83,0.0,-999.0,84,-99.99,,,0.00,weatherlink.com 1.10,2013-06-11 07:29:00,
2013-06-11 03:44:00,75.1,70.0,30.02,East,81,0.0,-999.0,84,-99.99,,,0.00,weatherlink.com 1.10,2013-06-11 07:44:00,
2013-06-11 03:59:00,74.7,70.0,30.03,East,98,1.0,-999.0,84,-99.99,,,0.00,weatherlink.com 1.10,2013-06-11 07:59:00,
2013-06-11 04:14:00,74.6,69.0,30.03,East,84,0.0,-999.0,83,-99.99,,,0.00,weatherlink.com 1.10,2013-06-11 08:14:00,
2013-06-11 04:29:00,74.4,69.0,30.04,East,100,0.0,-999.0,83,-99.99,,,0.00,weatherlink.com 1.10,2013-06-11 08:29:00,
2013-06-11 04:44:00,74.0,69.0,30.04,East,100,0.0,-999.0,83,-99.99,,,0.00,weatherlink.com 1.10,2013-06-11 08:44:00,
2013-06-11 04:59:00,73.7,68.0,30.04,East,100,0.0,-999.0,83,-99.99,,,0.00,weatherlink.com 1.10,2013-06-11 08:59:00,
2013-06-11 05:14:00,73.3,68.0,30.04,East,100,0.0,-999.0,83,-99.99,,,0.00,weatherlink.com 1.10,2013-06-11 09:14:00,
2013-06-11 05:29:00,73.2,68.0,30.04,East,100,0.0,-999.0,83,-99.99,,,0.00,weatherlink.com 1.10,2013-06-11 09:29:00,
2013-06-11 05:44:00,73.0,68.0,30.05,East,97,0.0,-999.0,83,-99.99,,,0.00,weatherlink.com 1.10,2013-06-11 09:44:00,
2013-06-11 05:59:00,73.0,68.0,30.05,East,97,0.0,-999.0,83,-99.99,,,0.00,weatherlink.com 1.10,2013-06-11 09:59:00,
2013-06-11 06:14:00,72.8,67.0,30.05,East,91,1.0,-999.0,83,-99.99,,,0.00,weatherlink.com 1.10,2013-06-11 10:14:00,
2013-06-11 06:29:00,72.8,67.0,30.05,East,95,0.0,-999.0,83,-99.99,,,0.00,weatherlink.com 1.10,2013-06-11 10:29:00,
2013-06-11 06:44:00,72.8,67.0,30.05,SE,132,0.0,-999.0,83,-99.99,,,0.00,weatherlink.com 1.10,2013-06-11 10:44:00,
2013-06-11 06:59:00,73.0,68.0,30.06,East,94,0.0,-999.0,83,-99.99,,,0.00,weatherlink.com 1.10,2013-06-11 10:59:00,
2013-06-11 07:14:00,73.3,68.0,30.06,SE,126,1.0,-999.0,83,-99.99,,,0.00,weatherlink.com 1.10,2013-06-11 11:14:00,
2013-06-11 07:29:00,73.7,68.0,30.06,ENE,72,2.0,-999.0,82,-99.99,,,0.00,weatherlink.com 1.10,2013-06-11 11:29:00,
2013-06-11 07:44:00,74.0,68.0,30.07,ESE,105,0.0,-999.0,81,-99.99,,,0.00,weatherlink.com 1.10,2013-06-11 11:44:00,
2013-06-11 07:59:00,74.4,68.0,30.07,SE,141,0.0,-999.0,81,-99.99,,,0.00,weatherlink.com 1.10,2013-06-11 11:59:00,
2013-06-11 08:14:00,74.7,69.0,30.07,ENE,60,0.0,-999.0,81,-99.99,,,0.00,weatherlink.com 1.10,2013-06-11 12:14:00,
2013-06-11 08:29:00,75.3,69.0,30.07,ESE,107,2.0,-999.0,80,-99.99,,,0.00,weatherlink.com 1.10,2013-06-11 12:29:00,
2013-06-11 08:44:00,75.8,69.0,30.07,SE,127,1.0,-999.0,79,-99.99,,,0.00,weatherlink.com 1.10,2013-06-11 12:44:00,
2013-06-11 08:59:00,76.3,69.0,30.07,South,188,0.0,-999.0,79,-99.99,,,0.00,weatherlink.com 1.10,2013-06-11 12:59:00,
2013-06-11 09:14:00,76.8,69.0,30.07,SE,135,0.0,-999.0,78,-99.99,,,0.00,weatherlink.com 1.10,2013-06-11 13:14:00,
2013-06-11 09:29:00,77.9,70.0,30.07,NE,55,0.0,-999.0,77,-99.99,,,0.00,weatherlink.com 1.10,2013-06-11 13:29:00,
2013-06-11 09:44:00,78.6,70.0,30.08,ESE,122,1.0,-999.0,75,-99.99,,,0.00,weatherlink.com 1.10,2013-06-11 13:44:00,
2013-06-11 09:59:00,79.0,70.0,30.07,ESE,114,1.0,-999.0,74,-99.99,,,0.00,weatherlink.com 1.10,2013-06-11 13:59:00,
2013-06-11 10:14:00,79.6,70.0,30.07,SSE,151,3.0,-999.0,72,-99.99,,,0.00,weatherlink.com 1.10,2013-06-11 14:14:00,
2013-06-11 10:29:00,80.3,70.0,30.07,ENE,72,1.0,-999.0,71,-99.99,,,0.00,weatherlink.com 1.10,2013-06-11 14:29:00,
2013-06-11 10:44:00,81.1,70.0,30.07,East,95,0.0,-999.0,69,-99.99,,,0.00,weatherlink.com 1.10,2013-06-11 14:44:00,
2013-06-11 10:59:00,82.2,70.0,30.07,ESE,106,1.0,-999.0,67,-99.99,,,0.00,weatherlink.com 1.10,2013-06-11 14:59:00,
2013-06-11 11:14:00,82.8,68.0,30.07,East,83,1.0,-999.0,62,-99.99,,,0.00,weatherlink.com 1.10,2013-06-11 15:14:00,
2013-06-11 11:29:00,83.2,69.0,30.07,ESE,102,3.0,-999.0,62,-99.99,,,0.00,weatherlink.com 1.10,2013-06-11 15:29:00,
2013-06-11 11:44:00,84.1,69.0,30.07,ENE,76,0.0,-999.0,60,-99.99,,,0.00,weatherlink.com 1.10,2013-06-11 15:44:00,
2013-06-11 11:59:00,84.5,69.0,30.07,SE,142,1.0,-999.0,59,-99.99,,,0.00,weatherlink.com 1.10,2013-06-11 15:59:00,
2013-06-11 12:14:00,85.7,68.0,30.07,ENE,67,1.0,-999.0,56,-99.99,,,0.00,weatherlink.com 1.10,2013-06-11 16:14:00,
2013-06-11 12:29:00,86.7,68.0,30.07,SE,143,1.0,-999.0,54,-99.99,,,0.00,weatherlink.com 1.10,2013-06-11 16:29:00,
2013-06-11 12:44:00,88.2,68.0,30.06,East,83,0.0,-999.0,52,-99.99,,,0.00,weatherlink.com 1.10,2013-06-11 16:44:00,
2013-06-11 13:00:00,88.8,66.0,30.06,East,92,0.0,-999.0,47,-99.99,,,0.00,weatherlink.com 1.10,2013-06-11 17:00:00,
2013-06-11 13:15:00,89.3,67.0,30.06,East,97,2.0,-999.0,48,-99.99,,,0.00,weatherlink.com 1.10,2013-06-11 17:15:00,
2013-06-11 13:30:00,90.5,66.0,30.06,SE,146,0.0,-999.0,44,-99.99,,,0.00,weatherlink.com 1.10,2013-06-11 17:30:00,
2013-06-11 13:45:00,91.0,66.0,30.05,East,90,0.0,-999.0,43,-99.99,,,0.00,weatherlink.com 1.10,2013-06-11 17:45:00,
2013-06-11 14:00:00,91.8,66.0,30.04,SSE,149,0.0,-999.0,43,-99.99,,,0.00,weatherlink.com 1.10,2013-06-11 18:00:00,
2013-06-11 14:15:00,92.7,64.0,30.04,East,101,3.0,-999.0,38,-99.99,,,0.00,weatherlink.com 1.10,2013-06-11 18:15:00,
2013-06-11 14:30:00,92.9,64.0,30.03,East,89,2.0,-999.0,39,-99.99,,,0.00,weatherlink.com 1.10,2013-06-11 18:30:00,
2013-06-11 14:45:00,93.2,65.0,30.03,ESE,119,0.0,-999.0,39,-99.99,,,0.00,weatherlink.com 1.10,2013-06-11 18:45:00,
2013-06-11 15:00:00,94.7,65.0,30.02,ENE,74,3.0,-999.0,37,-99.99,,,0.00,weatherlink.com 1.10,2013-06-11 19:00:00,
2013-06-11 15:15:00,94.3,63.0,30.02,East,95,1.0,-999.0,35,-99.99,,,0.00,weatherlink.com 1.10,2013-06-11 19:15:00,
2013-06-11 15:30:00,94.7,62.0,30.01,East,79,0.0,-999.0,34,-99.99,,,0.00,weatherlink.com 1.10,2013-06-11 19:30:00,
2013-06-11 15:45:00,95.9,62.0,30.01,SSE,165,1.0,-999.0,33,-99.99,,,0.00,weatherlink.com 1.10,2013-06-11 19:45:00,
2013-06-11 16:00:00,95.9,61.0,30.00,SE,140,1.0,-999.0,31,-99.99,,,0.00,weatherlink.com 1.10,2013-06-11 20:00:00,
2013-06-11 16:15:00,95.1,59.0,30.00,SE,128,3.0,-999.0,30,-99.99,,,0.00,weatherlink.com 1.10,2013-06-11 20:15:00,
2013-06-11 16:30:00,94.7,59.0,29.99,SSE,155,1.0,-999.0,30,-99.99,,,0.00,weatherlink.com 1.10,2013-06-11 20:30:00,
2013-06-11 16:45:00,93.2,71.0,30.00,ENE,63,0.0,-999.0,49,-99.99,,,0.00,weatherlink.com 1.10,2013-06-11 20:45:00,
2013-06-11 17:00:00,91.0,71.0,29.99,NE,50,0.0,-999.0,52,-99.99,,,0.00,weatherlink.com 1.10,2013-06-11 21:00:00,
2013-06-11 17:15:00,89.7,71.0,29.99,East,83,1.0,-999.0,55,-99.99,,,0.00,weatherlink.com 1.10,2013-06-11 21:15:00,
2013-06-11 17:30:00,88.8,71.0,29.99,ENE,70,2.0,-999.0,56,-99.99,,,0.00,weatherlink.com 1.10,2013-06-11 21:30:00,
2013-06-11 17:45:00,88.4,72.0,29.99,NE,43,1.0,-999.0,58,-99.99,,,0.00,weatherlink.com 1.10,2013-06-11 21:45:00,
2013-06-11 18:00:00,88.0,72.0,29.99,NNE,14,1.0,-999.0,59,-99.99,,,0.00,weatherlink.com 1.10,2013-06-11 22:00:00,
2013-06-11 18:15:00,87.6,72.0,29.99,SE,130,2.0,-999.0,60,-99.99,,,0.00,weatherlink.com 1.10,2013-06-11 22:15:00,
2013-06-11 18:30:00,87.0,72.0,29.98,North,4,3.0,-999.0,61,-99.99,,,0.00,weatherlink.com 1.10,2013-06-11 22:30:00,
2013-06-11 18:45:00,86.5,72.0,29.99,SSE,149,3.0,-999.0,63,-99.99,,,0.00,weatherlink.com 1.10,2013-06-11 22:45:00,
2013-06-11 19:00:00,86.3,73.0,30.00,East,90,1.0,-999.0,64,-99.99,,,0.00,weatherlink.com 1.10,2013-06-11 23:00:00,
2013-06-11 19:15:00,85.9,73.0,29.99,NNE,13,1.0,-999.0,65,-99.99,,,0.00,weatherlink.com 1.10,2013-06-11 23:15:00,
2013-06-11 19:30:00,85.3,73.0,29.98,SE,139,2.0,-999.0,66,-99.99,,,0.00,weatherlink.com 1.10,2013-06-11 23:30:00,
2013-06-11 19:45:00,84.9,72.0,29.98,East,93,0.0,-999.0,66,-99.99,,,0.00,weatherlink.com 1.10,2013-06-11 23:45:00,
2013-06-11 20:00:00,84.5,72.0,29.98,ENE,68,1.0,-999.0,66,-99.99,,,0.00,weatherlink.com 1.10,2013-06-12 00:00:00,
2013-06-11 20:15:00,84.1,72.0,29.99,ENE,69,0.0,-999.0,66,-99.99,,,0.00,weatherlink.com 1.10,2013-06-12 00:15:00,
2013-06-11 20:30:00,84.0,71.0,30.00,ENE,70,0.0,-999.0,66,-99.99,,,0.00,weatherlink.com 1.10,2013-06-12 00:30:00,
2013-06-11 20:45:00,83.8,72.0,29.99,ENE,70,0.0,-999.0,68,-99.99,,,0.00,weatherlink.com 1.10,2013-06-12 00:45:00,
2013-06-11 21:00:00,83.4,72.0,29.98,ENE,70,0.0,-999.0,68,-99.99,,,0.00,weatherlink.com 1.10,2013-06-12 01:00:00,
2013-06-11 21:15:00,82.8,70.0,29.98,East,84,0.0,-999.0,65,-99.99,,,0.00,weatherlink.com 1.10,2013-06-12 01:15:00,
2013-06-11 21:30:00,82.2,67.0,29.99,ESE,120,0.0,-999.0,60,-99.99,,,0.00,weatherlink.com 1.10,2013-06-12 01:30:00,
2013-06-11 21:45:00,82.0,66.0,30.00,ESE,118,0.0,-999.0,58,-99.99,,,0.00,weatherlink.com 1.10,2013-06-12 01:45:00,
2013-06-11 22:00:00,82.2,68.0,30.01,ESE,118,0.0,-999.0,63,-99.99,,,0.00,weatherlink.com 1.10,2013-06-12 02:00:00,
2013-06-11 22:15:00,82.4,69.0,30.02,ESE,118,0.0,-999.0,65,-99.99,,,0.00,weatherlink.com 1.10,2013-06-12 02:15:00,
2013-06-11 22:30:00,82.2,69.0,30.02,ESE,118,0.0,-999.0,64,-99.99,,,0.00,weatherlink.com 1.10,2013-06-12 02:30:00,
2013-06-11 22:45:00,82.0,69.0,30.01,East,99,0.0,-999.0,65,-99.99,,,0.00,weatherlink.com 1.10,2013-06-12 02:45:00,
2013-06-11 23:00:00,82.4,71.0,30.01,East,96,0.0,-999.0,68,-99.99,,,0.00,weatherlink.com 1.10,2013-06-12 03:00:00,
2013-06-11 23:15:00,82.4,71.0,30.00,ESE,116,0.0,-999.0,68,-99.99,,,0.00,weatherlink.com 1.10,2013-06-12 03:15:00,
2013-06-11 23:30:00,82.4,71.0,30.01,ESE,106,1.0,-999.0,69,-99.99,,,0.00,weatherlink.com 1.10,2013-06-12 03:30:00,
2013-06-11 23:45:00,82.2,71.0,30.01,ESE,105,0.0,-999.0,68,-99.99,,,0.00,weatherlink.com 1.10,2013-06-12 03:45:00,